sensor_id;sensor_type;location;lat;lon;timestamp;P1;durP1;ratioP1;P2;durP2;ratioP2
15595;SDS011;7898;48.658;9.068;2023-11-21T00:01:18;6.57;;;2.70;;
15595;SDS011;7898;48.658;9.068;2023-11-21T00:03:47;5.97;;;2.20;;
15595;SDS011;7898;48.658;9.068;2023-11-21T00:06:14;5.97;;;3.50;;
15595;SDS011;7898;48.658;9.068;2023-11-21T00:08:40;5.93;;;2.10;;
15595;SDS011;7898;48.658;9.068;2023-11-21T00:11:07;6.93;;;2.60;;
15595;SDS011;7898;48.658;9.068;2023-11-21T00:13:34;8.83;;;2.70;;
15595;SDS011;7898;48.658;9.068;2023-11-21T00:16:01;8.30;;;2.40;;
15595;SDS011;7898;48.658;9.068;2023-11-21T00:18:29;6.30;;;2.77;;
15595;SDS011;7898;48.658;9.068;2023-11-21T00:20:57;9.03;;;2.80;;
15595;SDS011;7898;48.658;9.068;2023-11-21T00:23:24;6.83;;;2.60;;
15595;SDS011;7898;48.658;9.068;2023-11-21T00:25:51;5.17;;;2.53;;
15595;SDS011;7898;48.658;9.068;2023-11-21T00:28:18;5.10;;;2.17;;
15595;SDS011;7898;48.658;9.068;2023-11-21T00:30:44;5.60;;;2.53;;
15595;SDS011;7898;48.658;9.068;2023-11-21T00:33:11;7.10;;;2.70;;
15595;SDS011;7898;48.658;9.068;2023-11-21T00:35:38;6.87;;;2.53;;
15595;SDS011;7898;48.658;9.068;2023-11-21T00:38:07;7.10;;;2.73;;
15595;SDS011;7898;48.658;9.068;2023-11-21T00:40:34;7.23;;;2.73;;
15595;SDS011;7898;48.658;9.068;2023-11-21T00:43:01;4.90;;;2.47;;
15595;SDS011;7898;48.658;9.068;2023-11-21T00:45:28;5.87;;;2.10;;
15595;SDS011;7898;48.658;9.068;2023-11-21T00:47:55;5.70;;;1.90;;
15595;SDS011;7898;48.658;9.068;2023-11-21T00:50:23;5.87;;;2.40;;
15595;SDS011;7898;48.658;9.068;2023-11-21T00:52:50;6.40;;;2.47;;
15595;SDS011;7898;48.658;9.068;2023-11-21T00:55:19;3.33;;;1.97;;
15595;SDS011;7898;48.658;9.068;2023-11-21T00:57:46;4.10;;;2.63;;
15595;SDS011;7898;48.658;9.068;2023-11-21T01:00:13;4.80;;;2.10;;
15595;SDS011;7898;48.658;9.068;2023-11-21T01:02:42;4.83;;;1.60;;
15595;SDS011;7898;48.658;9.068;2023-11-21T01:05:09;3.73;;;2.00;;
15595;SDS011;7898;48.658;9.068;2023-11-21T01:07:36;5.23;;;2.30;;
15595;SDS011;7898;48.658;9.068;2023-11-21T01:10:03;4.97;;;2.10;;
15595;SDS011;7898;48.658;9.068;2023-11-21T01:12:33;3.73;;;1.83;;
15595;SDS011;7898;48.658;9.068;2023-11-21T01:15:00;3.97;;;1.83;;
15595;SDS011;7898;48.658;9.068;2023-11-21T01:17:27;4.63;;;2.40;;
15595;SDS011;7898;48.658;9.068;2023-11-21T01:19:54;5.70;;;1.90;;
15595;SDS011;7898;48.658;9.068;2023-11-21T01:22:22;4.33;;;2.47;;
15595;SDS011;7898;48.658;9.068;2023-11-21T01:24:51;5.70;;;2.00;;
15595;SDS011;7898;48.658;9.068;2023-11-21T01:27:18;4.77;;;1.83;;
15595;SDS011;7898;48.658;9.068;2023-11-21T01:29:46;5.40;;;1.60;;
15595;SDS011;7898;48.658;9.068;2023-11-21T01:32:13;5.33;;;1.70;;
15595;SDS011;7898;48.658;9.068;2023-11-21T01:34:40;6.60;;;2.27;;
15595;SDS011;7898;48.658;9.068;2023-11-21T01:37:07;5.23;;;1.97;;
15595;SDS011;7898;48.658;9.068;2023-11-21T01:39:37;5.50;;;1.63;;
15595;SDS011;7898;48.658;9.068;2023-11-21T01:42:04;4.07;;;1.60;;
15595;SDS011;7898;48.658;9.068;2023-11-21T01:44:32;2.67;;;1.30;;
15595;SDS011;7898;48.658;9.068;2023-11-21T01:47:01;2.97;;;1.50;;
15595;SDS011;7898;48.658;9.068;2023-11-21T01:49:30;4.47;;;1.30;;
15595;SDS011;7898;48.658;9.068;2023-11-21T01:51:57;3.00;;;1.40;;
15595;SDS011;7898;48.658;9.068;2023-11-21T01:54:24;4.80;;;1.23;;
15595;SDS011;7898;48.658;9.068;2023-11-21T01:56:52;3.97;;;1.43;;
15595;SDS011;7898;48.658;9.068;2023-11-21T01:59:20;6.10;;;1.20;;
15595;SDS011;7898;48.658;9.068;2023-11-21T02:01:47;3.03;;;1.40;;
15595;SDS011;7898;48.658;9.068;2023-11-21T02:04:16;4.33;;;1.60;;
15595;SDS011;7898;48.658;9.068;2023-11-21T02:06:44;5.53;;;1.40;;
15595;SDS011;7898;48.658;9.068;2023-11-21T02:09:11;3.97;;;1.73;;
15595;SDS011;7898;48.658;9.068;2023-11-21T02:11:40;3.73;;;1.13;;
15595;SDS011;7898;48.658;9.068;2023-11-21T02:14:07;3.67;;;1.63;;
15595;SDS011;7898;48.658;9.068;2023-11-21T02:16:34;5.07;;;1.20;;
15595;SDS011;7898;48.658;9.068;2023-11-21T02:19:02;3.90;;;1.30;;
15595;SDS011;7898;48.658;9.068;2023-11-21T02:21:35;3.07;;;0.97;;
15595;SDS011;7898;48.658;9.068;2023-11-21T02:24:07;3.13;;;0.90;;
15595;SDS011;7898;48.658;9.068;2023-11-21T02:26:35;4.97;;;1.73;;
15595;SDS011;7898;48.658;9.068;2023-11-21T02:29:02;4.13;;;1.27;;
15595;SDS011;7898;48.658;9.068;2023-11-21T02:31:29;3.83;;;1.07;;
15595;SDS011;7898;48.658;9.068;2023-11-21T02:33:58;2.07;;;0.90;;
15595;SDS011;7898;48.658;9.068;2023-11-21T02:36:24;1.30;;;0.83;;
15595;SDS011;7898;48.658;9.068;2023-11-21T02:38:51;3.20;;;0.97;;
15595;SDS011;7898;48.658;9.068;2023-11-21T02:41:19;7.77;;;1.10;;
15595;SDS011;7898;48.658;9.068;2023-11-21T02:43:46;5.10;;;1.70;;
15595;SDS011;7898;48.658;9.068;2023-11-21T02:46:13;1.50;;;0.80;;
15595;SDS011;7898;48.658;9.068;2023-11-21T02:48:40;2.97;;;0.63;;
15595;SDS011;7898;48.658;9.068;2023-11-21T02:51:07;4.63;;;1.67;;
15595;SDS011;7898;48.658;9.068;2023-11-21T02:53:33;2.90;;;0.80;;
15595;SDS011;7898;48.658;9.068;2023-11-21T02:56:00;1.87;;;0.77;;
15595;SDS011;7898;48.658;9.068;2023-11-21T02:58:29;3.73;;;0.97;;
15595;SDS011;7898;48.658;9.068;2023-11-21T03:00:56;1.90;;;0.73;;
15595;SDS011;7898;48.658;9.068;2023-11-21T03:03:22;1.30;;;0.70;;
15595;SDS011;7898;48.658;9.068;2023-11-21T03:05:50;2.83;;;1.10;;
15595;SDS011;7898;48.658;9.068;2023-11-21T03:08:17;2.03;;;0.97;;
15595;SDS011;7898;48.658;9.068;2023-11-21T03:10:44;2.63;;;1.20;;
15595;SDS011;7898;48.658;9.068;2023-11-21T03:13:11;2.23;;;0.80;;
15595;SDS011;7898;48.658;9.068;2023-11-21T03:15:41;3.37;;;0.90;;
15595;SDS011;7898;48.658;9.068;2023-11-21T03:18:08;5.50;;;1.30;;
15595;SDS011;7898;48.658;9.068;2023-11-21T03:20:34;2.00;;;0.90;;
15595;SDS011;7898;48.658;9.068;2023-11-21T03:23:01;1.87;;;0.70;;
15595;SDS011;7898;48.658;9.068;2023-11-21T03:25:30;3.70;;;0.93;;
15595;SDS011;7898;48.658;9.068;2023-11-21T03:27:57;0.93;;;0.83;;
15595;SDS011;7898;48.658;9.068;2023-11-21T03:30:24;1.60;;;0.93;;
15595;SDS011;7898;48.658;9.068;2023-11-21T03:32:52;0.80;;;0.57;;
15595;SDS011;7898;48.658;9.068;2023-11-21T03:35:19;3.80;;;1.23;;
15595;SDS011;7898;48.658;9.068;2023-11-21T03:37:46;2.20;;;1.00;;
15595;SDS011;7898;48.658;9.068;2023-11-21T03:40:13;2.73;;;1.43;;
15595;SDS011;7898;48.658;9.068;2023-11-21T03:42:40;4.20;;;1.60;;
15595;SDS011;7898;48.658;9.068;2023-11-21T03:45:07;3.63;;;1.40;;
15595;SDS011;7898;48.658;9.068;2023-11-21T03:47:35;2.00;;;0.90;;
15595;SDS011;7898;48.658;9.068;2023-11-21T03:50:03;3.17;;;1.10;;
15595;SDS011;7898;48.658;9.068;2023-11-21T03:52:31;1.60;;;1.10;;
15595;SDS011;7898;48.658;9.068;2023-11-21T03:54:58;2.70;;;1.30;;
15595;SDS011;7898;48.658;9.068;2023-11-21T03:57:24;2.67;;;1.10;;
15595;SDS011;7898;48.658;9.068;2023-11-21T03:59:52;3.10;;;0.80;;
15595;SDS011;7898;48.658;9.068;2023-11-21T04:02:20;1.43;;;1.33;;
15595;SDS011;7898;48.658;9.068;2023-11-21T04:04:46;2.00;;;0.80;;
15595;SDS011;7898;48.658;9.068;2023-11-21T04:07:15;6.60;;;2.60;;
15595;SDS011;7898;48.658;9.068;2023-11-21T04:09:42;4.50;;;2.07;;
15595;SDS011;7898;48.658;9.068;2023-11-21T04:12:09;1.83;;;1.37;;
15595;SDS011;7898;48.658;9.068;2023-11-21T04:14:36;3.03;;;0.90;;
15595;SDS011;7898;48.658;9.068;2023-11-21T04:17:03;1.53;;;0.60;;
15595;SDS011;7898;48.658;9.068;2023-11-21T04:19:30;2.20;;;0.70;;
15595;SDS011;7898;48.658;9.068;2023-11-21T04:21:57;1.10;;;0.90;;
15595;SDS011;7898;48.658;9.068;2023-11-21T04:24:25;0.67;;;0.63;;
15595;SDS011;7898;48.658;9.068;2023-11-21T04:26:52;1.73;;;0.60;;
15595;SDS011;7898;48.658;9.068;2023-11-21T04:29:19;1.20;;;0.67;;
15595;SDS011;7898;48.658;9.068;2023-11-21T04:31:46;1.37;;;0.77;;
15595;SDS011;7898;48.658;9.068;2023-11-21T04:34:14;4.03;;;0.90;;
15595;SDS011;7898;48.658;9.068;2023-11-21T04:36:41;1.87;;;1.00;;
15595;SDS011;7898;48.658;9.068;2023-11-21T04:39:07;0.53;;;0.50;;
15595;SDS011;7898;48.658;9.068;2023-11-21T04:41:36;3.23;;;0.70;;
15595;SDS011;7898;48.658;9.068;2023-11-21T04:44:04;2.37;;;0.83;;
15595;SDS011;7898;48.658;9.068;2023-11-21T04:46:31;1.27;;;0.70;;
15595;SDS011;7898;48.658;9.068;2023-11-21T04:48:58;0.77;;;0.77;;
15595;SDS011;7898;48.658;9.068;2023-11-21T04:51:25;1.67;;;0.70;;
15595;SDS011;7898;48.658;9.068;2023-11-21T04:53:53;0.63;;;0.60;;
15595;SDS011;7898;48.658;9.068;2023-11-21T04:56:19;0.97;;;0.73;;
15595;SDS011;7898;48.658;9.068;2023-11-21T04:58:48;3.20;;;0.70;;
15595;SDS011;7898;48.658;9.068;2023-11-21T05:01:14;2.00;;;1.07;;
15595;SDS011;7898;48.658;9.068;2023-11-21T05:03:41;0.93;;;0.67;;
15595;SDS011;7898;48.658;9.068;2023-11-21T05:06:09;1.37;;;0.83;;
15595;SDS011;7898;48.658;9.068;2023-11-21T05:08:36;1.20;;;0.70;;
15595;SDS011;7898;48.658;9.068;2023-11-21T05:11:03;6.10;;;0.73;;
15595;SDS011;7898;48.658;9.068;2023-11-21T05:13:33;1.00;;;0.70;;
15595;SDS011;7898;48.658;9.068;2023-11-21T05:16:01;0.97;;;0.50;;
15595;SDS011;7898;48.658;9.068;2023-11-21T05:18:31;0.70;;;0.70;;
15595;SDS011;7898;48.658;9.068;2023-11-21T05:20:59;1.10;;;0.70;;
15595;SDS011;7898;48.658;9.068;2023-11-21T05:23:26;2.10;;;0.50;;
15595;SDS011;7898;48.658;9.068;2023-11-21T05:25:53;1.40;;;0.83;;
15595;SDS011;7898;48.658;9.068;2023-11-21T05:28:21;0.60;;;0.50;;
15595;SDS011;7898;48.658;9.068;2023-11-21T05:30:48;1.73;;;0.80;;
15595;SDS011;7898;48.658;9.068;2023-11-21T05:33:16;2.50;;;1.40;;
15595;SDS011;7898;48.658;9.068;2023-11-21T05:35:43;2.07;;;1.83;;
15595;SDS011;7898;48.658;9.068;2023-11-21T05:38:10;1.47;;;1.30;;
15595;SDS011;7898;48.658;9.068;2023-11-21T05:40:37;1.87;;;1.30;;
15595;SDS011;7898;48.658;9.068;2023-11-21T05:43:04;2.30;;;1.07;;
15595;SDS011;7898;48.658;9.068;2023-11-21T05:45:31;2.33;;;1.70;;
15595;SDS011;7898;48.658;9.068;2023-11-21T05:47:58;4.23;;;1.93;;
15595;SDS011;7898;48.658;9.068;2023-11-21T05:50:26;3.00;;;1.70;;
15595;SDS011;7898;48.658;9.068;2023-11-21T05:52:53;5.07;;;1.60;;
15595;SDS011;7898;48.658;9.068;2023-11-21T05:55:22;3.77;;;2.17;;
15595;SDS011;7898;48.658;9.068;2023-11-21T05:57:50;5.67;;;3.50;;
15595;SDS011;7898;48.658;9.068;2023-11-21T06:00:18;4.33;;;3.27;;
15595;SDS011;7898;48.658;9.068;2023-11-21T06:02:46;3.47;;;2.67;;
15595;SDS011;7898;48.658;9.068;2023-11-21T06:05:15;9.30;;;6.13;;
15595;SDS011;7898;48.658;9.068;2023-11-21T06:07:44;5.23;;;3.60;;
15595;SDS011;7898;48.658;9.068;2023-11-21T06:10:12;6.40;;;3.60;;
15595;SDS011;7898;48.658;9.068;2023-11-21T06:12:39;3.73;;;2.10;;
15595;SDS011;7898;48.658;9.068;2023-11-21T06:15:08;3.80;;;2.10;;
15595;SDS011;7898;48.658;9.068;2023-11-21T06:17:41;4.47;;;2.30;;
15595;SDS011;7898;48.658;9.068;2023-11-21T06:20:12;15.50;;;7.43;;
15595;SDS011;7898;48.658;9.068;2023-11-21T06:22:41;15.33;;;8.33;;
15595;SDS011;7898;48.658;9.068;2023-11-21T06:25:10;15.60;;;7.50;;
15595;SDS011;7898;48.658;9.068;2023-11-21T06:27:39;9.33;;;5.73;;
15595;SDS011;7898;48.658;9.068;2023-11-21T06:30:07;9.00;;;5.27;;
15595;SDS011;7898;48.658;9.068;2023-11-21T06:32:35;7.67;;;3.93;;
15595;SDS011;7898;48.658;9.068;2023-11-21T06:35:02;8.03;;;4.37;;
15595;SDS011;7898;48.658;9.068;2023-11-21T06:37:29;5.40;;;3.03;;
15595;SDS011;7898;48.658;9.068;2023-11-21T06:39:57;10.70;;;6.77;;
15595;SDS011;7898;48.658;9.068;2023-11-21T06:42:26;12.50;;;6.83;;
15595;SDS011;7898;48.658;9.068;2023-11-21T06:44:54;5.23;;;2.63;;
15595;SDS011;7898;48.658;9.068;2023-11-21T06:47:22;6.67;;;3.57;;
15595;SDS011;7898;48.658;9.068;2023-11-21T06:49:50;8.60;;;4.03;;
15595;SDS011;7898;48.658;9.068;2023-11-21T06:52:17;10.17;;;4.30;;
15595;SDS011;7898;48.658;9.068;2023-11-21T06:54:44;9.40;;;5.10;;
15595;SDS011;7898;48.658;9.068;2023-11-21T06:57:12;9.07;;;4.67;;
15595;SDS011;7898;48.658;9.068;2023-11-21T06:59:41;7.50;;;2.97;;
15595;SDS011;7898;48.658;9.068;2023-11-21T07:02:07;6.37;;;3.33;;
15595;SDS011;7898;48.658;9.068;2023-11-21T07:04:35;5.23;;;3.60;;
15595;SDS011;7898;48.658;9.068;2023-11-21T07:07:02;7.27;;;4.20;;
15595;SDS011;7898;48.658;9.068;2023-11-21T07:09:29;4.70;;;3.90;;
15595;SDS011;7898;48.658;9.068;2023-11-21T07:11:56;5.87;;;4.03;;
15595;SDS011;7898;48.658;9.068;2023-11-21T07:14:23;8.30;;;4.50;;
15595;SDS011;7898;48.658;9.068;2023-11-21T07:16:51;4.57;;;3.27;;
15595;SDS011;7898;48.658;9.068;2023-11-21T07:19:18;3.77;;;2.80;;
15595;SDS011;7898;48.658;9.068;2023-11-21T07:21:46;7.03;;;3.60;;
15595;SDS011;7898;48.658;9.068;2023-11-21T07:24:15;5.40;;;3.27;;
15595;SDS011;7898;48.658;9.068;2023-11-21T07:26:42;3.37;;;2.30;;
15595;SDS011;7898;48.658;9.068;2023-11-21T07:29:09;5.50;;;4.10;;
15595;SDS011;7898;48.658;9.068;2023-11-21T07:31:38;6.10;;;3.87;;
15595;SDS011;7898;48.658;9.068;2023-11-21T07:34:07;4.93;;;3.47;;
15595;SDS011;7898;48.658;9.068;2023-11-21T07:36:34;4.60;;;2.37;;
15595;SDS011;7898;48.658;9.068;2023-11-21T07:39:02;6.77;;;3.47;;
15595;SDS011;7898;48.658;9.068;2023-11-21T07:41:29;9.10;;;5.03;;
15595;SDS011;7898;48.658;9.068;2023-11-21T07:43:55;5.37;;;3.07;;
15595;SDS011;7898;48.658;9.068;2023-11-21T07:46:22;3.77;;;2.83;;
15595;SDS011;7898;48.658;9.068;2023-11-21T07:48:51;3.80;;;3.20;;
15595;SDS011;7898;48.658;9.068;2023-11-21T07:51:19;4.20;;;2.07;;
15595;SDS011;7898;48.658;9.068;2023-11-21T07:53:47;4.77;;;2.70;;
15595;SDS011;7898;48.658;9.068;2023-11-21T07:56:14;5.43;;;2.53;;
15595;SDS011;7898;48.658;9.068;2023-11-21T07:58:41;3.00;;;2.60;;
15595;SDS011;7898;48.658;9.068;2023-11-21T08:01:08;4.87;;;4.10;;
15595;SDS011;7898;48.658;9.068;2023-11-21T08:03:35;6.90;;;4.30;;
15595;SDS011;7898;48.658;9.068;2023-11-21T08:06:02;4.23;;;3.20;;
15595;SDS011;7898;48.658;9.068;2023-11-21T08:08:32;4.47;;;2.80;;
15595;SDS011;7898;48.658;9.068;2023-11-21T08:10:59;2.70;;;2.40;;
15595;SDS011;7898;48.658;9.068;2023-11-21T08:13:27;3.53;;;3.03;;
15595;SDS011;7898;48.658;9.068;2023-11-21T08:15:56;4.60;;;2.17;;
15595;SDS011;7898;48.658;9.068;2023-11-21T08:18:26;2.07;;;1.40;;
15595;SDS011;7898;48.658;9.068;2023-11-21T08:20:54;3.23;;;1.70;;
15595;SDS011;7898;48.658;9.068;2023-11-21T08:23:21;3.10;;;1.80;;
15595;SDS011;7898;48.658;9.068;2023-11-21T08:25:52;4.43;;;2.17;;
15595;SDS011;7898;48.658;9.068;2023-11-21T08:28:19;2.77;;;1.97;;
15595;SDS011;7898;48.658;9.068;2023-11-21T08:30:47;2.47;;;2.07;;
15595;SDS011;7898;48.658;9.068;2023-11-21T08:33:14;2.63;;;1.47;;
15595;SDS011;7898;48.658;9.068;2023-11-21T08:35:41;2.77;;;1.50;;
15595;SDS011;7898;48.658;9.068;2023-11-21T08:38:07;2.97;;;1.73;;
15595;SDS011;7898;48.658;9.068;2023-11-21T08:40:35;3.53;;;1.97;;
15595;SDS011;7898;48.658;9.068;2023-11-21T08:43:03;6.93;;;1.70;;
15595;SDS011;7898;48.658;9.068;2023-11-21T08:45:30;3.00;;;1.90;;
15595;SDS011;7898;48.658;9.068;2023-11-21T08:47:59;3.70;;;1.60;;
15595;SDS011;7898;48.658;9.068;2023-11-21T08:50:26;4.97;;;1.90;;
15595;SDS011;7898;48.658;9.068;2023-11-21T08:52:53;5.93;;;2.13;;
15595;SDS011;7898;48.658;9.068;2023-11-21T08:55:20;1.93;;;1.73;;
15595;SDS011;7898;48.658;9.068;2023-11-21T08:57:47;2.43;;;1.80;;
15595;SDS011;7898;48.658;9.068;2023-11-21T09:00:16;2.30;;;2.10;;
15595;SDS011;7898;48.658;9.068;2023-11-21T09:02:43;4.50;;;2.83;;
15595;SDS011;7898;48.658;9.068;2023-11-21T09:05:11;3.67;;;2.17;;
15595;SDS011;7898;48.658;9.068;2023-11-21T09:07:40;1.50;;;1.20;;
15595;SDS011;7898;48.658;9.068;2023-11-21T09:10:08;2.13;;;1.53;;
15595;SDS011;7898;48.658;9.068;2023-11-21T09:12:36;2.23;;;2.03;;
15595;SDS011;7898;48.658;9.068;2023-11-21T09:15:04;4.20;;;1.30;;
15595;SDS011;7898;48.658;9.068;2023-11-21T09:17:33;1.83;;;1.60;;
15595;SDS011;7898;48.658;9.068;2023-11-21T09:20:00;2.97;;;1.37;;
15595;SDS011;7898;48.658;9.068;2023-11-21T09:22:30;3.03;;;1.30;;
15595;SDS011;7898;48.658;9.068;2023-11-21T09:24:57;2.87;;;1.93;;
15595;SDS011;7898;48.658;9.068;2023-11-21T09:27:24;3.80;;;2.33;;
15595;SDS011;7898;48.658;9.068;2023-11-21T09:29:51;18.10;;;9.53;;
15595;SDS011;7898;48.658;9.068;2023-11-21T09:34:47;5.17;;;3.13;;
15595;SDS011;7898;48.658;9.068;2023-11-21T09:37:15;4.83;;;2.70;;
15595;SDS011;7898;48.658;9.068;2023-11-21T09:39:42;5.17;;;2.07;;
15595;SDS011;7898;48.658;9.068;2023-11-21T09:42:10;3.37;;;2.30;;
15595;SDS011;7898;48.658;9.068;2023-11-21T09:44:43;3.20;;;2.00;;
15595;SDS011;7898;48.658;9.068;2023-11-21T09:47:14;2.77;;;1.60;;
15595;SDS011;7898;48.658;9.068;2023-11-21T09:49:42;3.53;;;1.47;;
15595;SDS011;7898;48.658;9.068;2023-11-21T09:52:17;2.73;;;1.57;;
15595;SDS011;7898;48.658;9.068;2023-11-21T09:54:50;1.53;;;1.27;;
15595;SDS011;7898;48.658;9.068;2023-11-21T09:57:19;2.37;;;1.53;;
15595;SDS011;7898;48.658;9.068;2023-11-21T09:59:48;1.40;;;1.30;;
15595;SDS011;7898;48.658;9.068;2023-11-21T10:02:20;1.63;;;1.23;;
15595;SDS011;7898;48.658;9.068;2023-11-21T10:04:52;1.80;;;1.60;;
15595;SDS011;7898;48.658;9.068;2023-11-21T10:07:20;2.37;;;1.30;;
15595;SDS011;7898;48.658;9.068;2023-11-21T10:09:47;1.60;;;1.27;;
15595;SDS011;7898;48.658;9.068;2023-11-21T10:12:14;2.97;;;1.40;;
15595;SDS011;7898;48.658;9.068;2023-11-21T10:14:42;5.03;;;1.50;;
15595;SDS011;7898;48.658;9.068;2023-11-21T10:17:12;2.97;;;1.57;;
15595;SDS011;7898;48.658;9.068;2023-11-21T10:19:41;1.43;;;1.33;;
15595;SDS011;7898;48.658;9.068;2023-11-21T10:22:11;3.20;;;2.10;;
15595;SDS011;7898;48.658;9.068;2023-11-21T10:24:40;2.30;;;1.33;;
15595;SDS011;7898;48.658;9.068;2023-11-21T10:27:08;2.70;;;1.80;;
15595;SDS011;7898;48.658;9.068;2023-11-21T10:29:35;2.37;;;1.83;;
15595;SDS011;7898;48.658;9.068;2023-11-21T10:32:02;2.00;;;1.80;;
15595;SDS011;7898;48.658;9.068;2023-11-21T10:34:30;1.90;;;1.80;;
15595;SDS011;7898;48.658;9.068;2023-11-21T10:36:58;3.70;;;1.90;;
15595;SDS011;7898;48.658;9.068;2023-11-21T10:39:26;3.20;;;2.27;;
15595;SDS011;7898;48.658;9.068;2023-11-21T10:41:56;3.83;;;1.77;;
15595;SDS011;7898;48.658;9.068;2023-11-21T10:44:22;3.47;;;1.80;;
15595;SDS011;7898;48.658;9.068;2023-11-21T10:46:50;3.83;;;2.23;;
15595;SDS011;7898;48.658;9.068;2023-11-21T10:49:21;2.67;;;1.33;;
15595;SDS011;7898;48.658;9.068;2023-11-21T10:51:49;3.40;;;2.40;;
15595;SDS011;7898;48.658;9.068;2023-11-21T10:54:18;5.43;;;2.10;;
15595;SDS011;7898;48.658;9.068;2023-11-21T10:56:48;2.53;;;1.80;;
15595;SDS011;7898;48.658;9.068;2023-11-21T10:59:17;2.17;;;1.60;;
15595;SDS011;7898;48.658;9.068;2023-11-21T11:01:46;4.00;;;1.60;;
15595;SDS011;7898;48.658;9.068;2023-11-21T11:04:15;3.77;;;2.10;;
15595;SDS011;7898;48.658;9.068;2023-11-21T11:06:44;2.50;;;2.30;;
15595;SDS011;7898;48.658;9.068;2023-11-21T11:09:15;2.80;;;1.87;;
15595;SDS011;7898;48.658;9.068;2023-11-21T11:11:43;3.73;;;2.37;;
15595;SDS011;7898;48.658;9.068;2023-11-21T11:14:12;6.00;;;3.80;;
15595;SDS011;7898;48.658;9.068;2023-11-21T11:16:39;3.10;;;2.67;;
15595;SDS011;7898;48.658;9.068;2023-11-21T11:19:08;2.03;;;1.90;;
15595;SDS011;7898;48.658;9.068;2023-11-21T11:21:41;2.97;;;2.00;;
15595;SDS011;7898;48.658;9.068;2023-11-21T11:24:20;3.67;;;2.40;;
15595;SDS011;7898;48.658;9.068;2023-11-21T11:27:09;3.93;;;2.30;;
15595;SDS011;7898;48.658;9.068;2023-11-21T11:29:50;3.23;;;2.50;;
15595;SDS011;7898;48.658;9.068;2023-11-21T11:32:37;4.50;;;2.90;;
15595;SDS011;7898;48.658;9.068;2023-11-21T11:35:17;3.67;;;2.43;;
15595;SDS011;7898;48.658;9.068;2023-11-21T11:37:50;5.07;;;1.90;;
15595;SDS011;7898;48.658;9.068;2023-11-21T11:40:17;3.30;;;2.33;;
15595;SDS011;7898;48.658;9.068;2023-11-21T11:42:55;5.70;;;2.77;;
15595;SDS011;7898;48.658;9.068;2023-11-21T11:45:25;4.13;;;2.57;;
15595;SDS011;7898;48.658;9.068;2023-11-21T11:47:59;5.50;;;2.60;;
15595;SDS011;7898;48.658;9.068;2023-11-21T11:50:27;3.67;;;2.60;;
15595;SDS011;7898;48.658;9.068;2023-11-21T11:52:55;7.10;;;2.73;;
15595;SDS011;7898;48.658;9.068;2023-11-21T11:55:46;4.47;;;3.90;;
15595;SDS011;7898;48.658;9.068;2023-11-21T11:58:45;7.40;;;3.10;;
15595;SDS011;7898;48.658;9.068;2023-11-21T12:01:15;3.63;;;2.83;;
15595;SDS011;7898;48.658;9.068;2023-11-21T12:03:43;4.57;;;2.87;;
15595;SDS011;7898;48.658;9.068;2023-11-21T12:06:12;3.00;;;2.20;;
15595;SDS011;7898;48.658;9.068;2023-11-21T12:08:39;3.27;;;1.97;;
15595;SDS011;7898;48.658;9.068;2023-11-21T12:11:07;4.20;;;2.20;;
15595;SDS011;7898;48.658;9.068;2023-11-21T12:13:36;3.83;;;1.80;;
15595;SDS011;7898;48.658;9.068;2023-11-21T12:16:03;2.57;;;1.80;;
15595;SDS011;7898;48.658;9.068;2023-11-21T12:18:32;1.73;;;1.63;;
15595;SDS011;7898;48.658;9.068;2023-11-21T12:21:03;2.67;;;1.47;;
15595;SDS011;7898;48.658;9.068;2023-11-21T12:23:34;2.43;;;1.50;;
15595;SDS011;7898;48.658;9.068;2023-11-21T12:26:01;3.90;;;1.67;;
15595;SDS011;7898;48.658;9.068;2023-11-21T12:28:28;2.30;;;1.20;;
15595;SDS011;7898;48.658;9.068;2023-11-21T12:30:55;2.57;;;1.33;;
15595;SDS011;7898;48.658;9.068;2023-11-21T12:33:22;2.33;;;1.70;;
15595;SDS011;7898;48.658;9.068;2023-11-21T12:35:52;3.63;;;1.70;;
15595;SDS011;7898;48.658;9.068;2023-11-21T12:38:19;2.20;;;1.53;;
15595;SDS011;7898;48.658;9.068;2023-11-21T12:40:46;2.87;;;1.50;;
15595;SDS011;7898;48.658;9.068;2023-11-21T12:43:13;3.07;;;1.33;;
15595;SDS011;7898;48.658;9.068;2023-11-21T12:45:40;3.37;;;1.30;;
15595;SDS011;7898;48.658;9.068;2023-11-21T12:48:06;1.93;;;1.67;;
15595;SDS011;7898;48.658;9.068;2023-11-21T12:50:36;1.63;;;1.27;;
15595;SDS011;7898;48.658;9.068;2023-11-21T12:53:05;1.83;;;1.03;;
15595;SDS011;7898;48.658;9.068;2023-11-21T12:55:35;1.23;;;0.90;;
15595;SDS011;7898;48.658;9.068;2023-11-21T12:58:03;1.53;;;0.70;;
15595;SDS011;7898;48.658;9.068;2023-11-21T13:00:34;1.73;;;0.70;;
15595;SDS011;7898;48.658;9.068;2023-11-21T13:03:03;2.70;;;0.80;;
15595;SDS011;7898;48.658;9.068;2023-11-21T13:05:32;1.40;;;0.73;;
15595;SDS011;7898;48.658;9.068;2023-11-21T13:08:00;1.73;;;0.90;;
15595;SDS011;7898;48.658;9.068;2023-11-21T13:10:30;0.70;;;0.70;;
15595;SDS011;7898;48.658;9.068;2023-11-21T13:13:01;1.00;;;0.90;;
15595;SDS011;7898;48.658;9.068;2023-11-21T13:15:30;1.77;;;1.23;;
15595;SDS011;7898;48.658;9.068;2023-11-21T13:18:00;0.70;;;0.70;;
15595;SDS011;7898;48.658;9.068;2023-11-21T13:20:27;1.30;;;1.03;;
15595;SDS011;7898;48.658;9.068;2023-11-21T13:22:55;3.17;;;2.30;;
15595;SDS011;7898;48.658;9.068;2023-11-21T13:25:24;1.53;;;1.40;;
15595;SDS011;7898;48.658;9.068;2023-11-21T13:27:54;1.60;;;1.13;;
15595;SDS011;7898;48.658;9.068;2023-11-21T13:30:21;1.90;;;1.43;;
15595;SDS011;7898;48.658;9.068;2023-11-21T13:32:52;2.10;;;1.80;;
15595;SDS011;7898;48.658;9.068;2023-11-21T13:35:22;3.63;;;2.90;;
15595;SDS011;7898;48.658;9.068;2023-11-21T13:37:56;2.10;;;1.90;;
15595;SDS011;7898;48.658;9.068;2023-11-21T13:40:25;3.53;;;1.60;;
15595;SDS011;7898;48.658;9.068;2023-11-21T13:42:54;1.80;;;1.70;;
15595;SDS011;7898;48.658;9.068;2023-11-21T13:45:24;2.20;;;2.00;;
15595;SDS011;7898;48.658;9.068;2023-11-21T13:47:53;2.33;;;2.03;;
15595;SDS011;7898;48.658;9.068;2023-11-21T13:50:23;3.43;;;2.37;;
15595;SDS011;7898;48.658;9.068;2023-11-21T13:52:54;1.87;;;0.90;;
15595;SDS011;7898;48.658;9.068;2023-11-21T13:55:21;2.27;;;0.83;;
15595;SDS011;7898;48.658;9.068;2023-11-21T13:57:50;1.23;;;0.90;;
15595;SDS011;7898;48.658;9.068;2023-11-21T14:00:19;1.03;;;0.73;;
15595;SDS011;7898;48.658;9.068;2023-11-21T14:03:14;0.60;;;0.50;;
15595;SDS011;7898;48.658;9.068;2023-11-21T14:05:47;1.23;;;0.77;;
15595;SDS011;7898;48.658;9.068;2023-11-21T14:08:16;0.80;;;0.70;;
15595;SDS011;7898;48.658;9.068;2023-11-21T14:10:46;1.17;;;0.67;;
15595;SDS011;7898;48.658;9.068;2023-11-21T14:13:16;1.10;;;0.80;;
15595;SDS011;7898;48.658;9.068;2023-11-21T14:15:45;1.03;;;0.73;;
15595;SDS011;7898;48.658;9.068;2023-11-21T14:18:16;0.93;;;0.80;;
15595;SDS011;7898;48.658;9.068;2023-11-21T14:20:51;0.87;;;0.70;;
15595;SDS011;7898;48.658;9.068;2023-11-21T14:23:18;0.80;;;0.80;;
15595;SDS011;7898;48.658;9.068;2023-11-21T14:25:46;1.90;;;1.17;;
15595;SDS011;7898;48.658;9.068;2023-11-21T14:28:13;1.00;;;0.90;;
15595;SDS011;7898;48.658;9.068;2023-11-21T14:30:40;1.37;;;1.10;;
15595;SDS011;7898;48.658;9.068;2023-11-21T14:33:08;1.67;;;1.20;;
15595;SDS011;7898;48.658;9.068;2023-11-21T14:35:36;0.97;;;0.87;;
15595;SDS011;7898;48.658;9.068;2023-11-21T14:38:03;2.97;;;1.00;;
15595;SDS011;7898;48.658;9.068;2023-11-21T14:40:31;1.70;;;1.10;;
15595;SDS011;7898;48.658;9.068;2023-11-21T14:43:00;0.90;;;0.90;;
15595;SDS011;7898;48.658;9.068;2023-11-21T14:45:30;1.60;;;1.00;;
15595;SDS011;7898;48.658;9.068;2023-11-21T14:47:57;1.13;;;1.03;;
15595;SDS011;7898;48.658;9.068;2023-11-21T14:50:32;2.00;;;1.17;;
15595;SDS011;7898;48.658;9.068;2023-11-21T14:53:17;1.20;;;1.10;;
15595;SDS011;7898;48.658;9.068;2023-11-21T14:56:03;1.20;;;1.10;;
15595;SDS011;7898;48.658;9.068;2023-11-21T14:58:32;1.77;;;1.30;;
15595;SDS011;7898;48.658;9.068;2023-11-21T15:01:00;1.60;;;1.50;;
15595;SDS011;7898;48.658;9.068;2023-11-21T15:03:26;3.70;;;1.20;;
15595;SDS011;7898;48.658;9.068;2023-11-21T15:06:09;1.40;;;1.27;;
15595;SDS011;7898;48.658;9.068;2023-11-21T15:08:52;2.60;;;1.40;;
15595;SDS011;7898;48.658;9.068;2023-11-21T15:11:25;1.73;;;1.30;;